Terminal Aerodrome Forecast
Issued by NWS Nashville, TN

Home | Current Version | Previous Version | Text Only | Print | Product List | Glossary On
Versions: 1 2 3 4 5 6 7 8 9 10 11 12 13 14 15 16 17 18 19 20 21 22 23 24 25 26 27 28 29 30 31 32 33 34 35 36 37 38 39 40 41 42 43
000
FTUS44 KOHX 240520
TAFBNA
TAF
KBNA 240520Z 2406/2506 36010KT P6SM VCSH SCT008 OVC025
      TEMPO 2406/2409 5SM -RA BR BKN008 OVC015
     FM240900 36007KT 5SM BR BKN007 OVC012
     FM241600 01006KT P6SM OVC015
     FM250000 VRB03KT P6SM SCT100=

USA.gov is the U.S. government's official web portal to all federal, state and local government web resources and services.